Time;durP1;ratioP1;P1;durP2;ratioP2;P2;SDS_P1;SDS_P2;PMS_P1;PMS_P2;Temp;Humidity;BMP_temperature;BMP_pressure;BME280_temperature;BME280_humidity;BME280_pressure;Samples;Min_cycle;Max_cycle;Signal;HPM_P1;HPM_P2
2022/11/11 00:00:35;;;;;;;36.53;16.30;;;10.50;99.90;;;;;;4931946;29;20102;-67
2022/11/11 00:03:01;;;;;;;25.83;16.10;;;10.40;99.90;;;;;;4930460;29;20043;-68
2022/11/11 00:05:27;;;;;;;26.73;15.68;;;10.40;99.90;;;;;;4930669;29;20043;-68
2022/11/11 00:07:58;;;;;;;35.15;18.95;;;10.50;99.90;;;;;;4929298;29;20074;-67
2022/11/11 00:10:26;;;;;;;30.10;17.65;;;10.40;99.90;;;;;;4929836;29;20043;-67
2022/11/11 00:12:52;;;;;;;30.67;17.45;;;10.60;99.90;;;;;;4931591;29;20051;-67
2022/11/11 00:15:17;;;;;;;33.10;19.23;;;10.60;99.90;;;;;;4930880;29;20074;-68
2022/11/11 00:26:05;;;;;;;34.08;17.92;;;10.60;99.90;;;;;;4934844;29;20501;-67
2022/11/11 00:28:31;;;;;;;39.40;20.20;;;10.60;99.90;;;;;;4929470;29;20051;-68
2022/11/11 00:31:05;;;;;;;38.88;18.40;;;10.60;99.90;;;;;;4930391;29;20056;-68
2022/11/11 00:33:31;;;;;;;33.10;19.45;;;10.90;99.90;;;;;;4931083;29;20114;-67
2022/11/11 00:35:56;;;;;;;36.45;19.55;;;10.70;99.90;;;;;;4931116;29;20794;-67
2022/11/11 00:41:06;;;;;;;35.00;20.60;;;10.70;99.90;;;;;;4930710;29;20481;-67
2022/11/11 00:43:32;;;;;;;44.80;20.80;;;10.70;99.90;;;;;;4929915;29;20054;-67
2022/11/11 00:51:27;;;;;;;31.67;19.52;;;10.80;99.90;;;;;;4925149;29;20064;-68
2022/11/11 00:53:53;;;;;;;31.85;18.98;;;10.80;99.90;;;;;;4929586;29;20035;-68
2022/11/11 00:56:20;;;;;;;31.48;20.48;;;10.80;99.90;;;;;;4930417;29;20043;-67
2022/11/11 00:58:46;;;;;;;43.90;20.23;;;10.80;99.90;;;;;;4930821;29;20105;-67
2022/11/11 01:01:11;;;;;;;39.30;20.75;;;10.80;99.90;;;;;;4944713;29;20480;-67
2022/11/11 01:03:37;;;;;;;44.45;20.38;;;10.80;99.90;;;;;;4928057;29;20051;-67
2022/11/11 01:06:03;;;;;;;35.25;20.77;;;10.80;99.90;;;;;;4932815;29;20141;-68
2022/11/11 01:08:30;;;;;;;38.25;19.52;;;10.80;99.90;;;;;;4929770;29;20063;-68
2022/11/11 01:10:56;;;;;;;43.33;21.15;;;10.90;99.90;;;;;;4930237;29;20527;-68
2022/11/11 01:13:32;;;;;;;40.10;20.95;;;10.80;99.90;;;;;;4929646;29;20047;-67
2022/11/11 01:16:06;;;;;;;38.88;19.73;;;10.80;99.90;;;;;;4930480;29;20421;-68
2022/11/11 01:18:32;;;;;;;32.22;19.42;;;10.80;99.90;;;;;;4930148;29;20051;-67
2022/11/11 01:21:10;;;;;;;36.33;20.67;;;10.70;99.90;;;;;;4928185;29;20036;-67
2022/11/11 01:23:37;;;;;;;32.35;19.80;;;10.70;99.90;;;;;;4929771;29;20137;-68
2022/11/11 01:26:13;;;;;;;37.58;20.73;;;10.60;99.90;;;;;;4923469;29;20031;-67
2022/11/11 01:28:40;;;;;;;35.55;21.45;;;10.70;99.90;;;;;;4930487;29;20051;-67
2022/11/11 01:31:09;;;;;;;36.88;20.13;;;10.70;99.90;;;;;;4945280;28;20099;-67
2022/11/11 01:33:36;;;;;;;38.00;20.52;;;10.60;99.90;;;;;;4929857;29;20502;-67
2022/11/11 01:36:08;;;;;;;50.80;21.95;;;10.80;99.90;;;;;;4930030;29;20055;-67
2022/11/11 01:38:37;;;;;;;44.78;21.10;;;10.70;99.90;;;;;;4928855;29;20052;-67
2022/11/11 01:41:31;;;;;;;39.83;21.08;;;11.00;99.90;;;;;;4930258;29;20052;-67
2022/11/11 01:43:49;;;;;;;39.45;22.67;;;10.60;99.90;;;;;;4929733;29;20059;-67
2022/11/11 01:46:22;;;;;;;33.70;22.63;;;10.50;99.90;;;;;;4929468;29;20114;-67
2022/11/11 01:51:40;;;;;;;36.95;23.30;;;10.50;99.90;;;;;;4929798;29;20051;-68
2022/11/11 01:54:11;;;;;;;61.20;26.08;;;10.50;99.90;;;;;;4929969;29;20052;-67
2022/11/11 01:56:37;;;;;;;40.75;24.90;;;10.50;99.90;;;;;;4929632;29;20048;-68
2022/11/11 01:59:10;;;;;;;52.63;25.05;;;10.50;99.90;;;;;;4930063;29;20052;-67
2022/11/11 02:01:36;;;;;;;39.22;24.55;;;10.40;99.90;;;;;;4930055;29;20056;-68
2022/11/11 02:06:52;;;;;;;46.78;25.95;;;10.40;99.90;;;;;;4937266;29;20127;-67
2022/11/11 02:09:19;;;;;;;50.25;27.27;;;10.40;99.90;;;;;;4933277;29;20117;-68
2022/11/11 02:14:35;;;;;;;59.08;26.73;;;10.30;99.90;;;;;;4933787;29;20055;-68
2022/11/11 02:17:04;;;;;;;44.13;26.73;;;10.20;99.90;;;;;;4933435;29;20050;-67
2022/11/11 02:19:58;;;;;;;55.55;28.40;;;10.20;99.90;;;;;;4916047;29;20882;-67
2022/11/11 02:22:37;;;;;;;43.28;27.15;;;10.20;99.90;;;;;;4932447;29;20071;-67
2022/11/11 02:25:05;;;;;;;55.53;28.00;;;10.20;99.90;;;;;;4933231;29;20429;-67
2022/11/11 02:27:34;;;;;;;45.38;27.08;;;10.10;99.90;;;;;;4932659;29;20054;-67
2022/11/11 02:30:03;;;;;;;44.75;29.63;;;10.10;99.90;;;;;;4932880;29;20477;-67
2022/11/11 02:32:29;;;;;;;48.00;27.83;;;10.00;99.90;;;;;;4932776;29;20055;-67
2022/11/11 02:34:54;;;;;;;53.42;29.63;;;10.00;99.90;;;;;;4932285;29;20134;-68
2022/11/11 02:37:23;;;;;;;53.55;28.23;;;10.00;99.90;;;;;;4933053;29;20477;-68
2022/11/11 02:39:52;;;;;;;57.75;30.55;;;10.00;99.90;;;;;;4932927;29;20043;-67
2022/11/11 02:42:20;;;;;;;59.28;31.27;;;9.90;99.90;;;;;;4932474;29;20177;-67
2022/11/11 02:44:45;;;;;;;50.23;30.80;;;9.90;99.90;;;;;;4932898;29;20058;-67
2022/11/11 02:47:11;;;;;;;54.08;31.52;;;9.90;99.90;;;;;;4930777;29;20624;-68
2022/11/11 02:49:37;;;;;;;55.70;32.95;;;9.90;99.90;;;;;;4932273;29;20063;-67
2022/11/11 02:52:02;;;;;;;59.60;33.60;;;9.90;99.90;;;;;;4932913;29;20394;-67
2022/11/11 02:54:29;;;;;;;48.00;32.70;;;9.90;99.90;;;;;;4932955;29;20123;-67
2022/11/11 02:57:06;;;;;;;32.38;13.25;;;9.90;99.90;;;;;;4932716;29;20054;-67
2022/11/11 02:59:37;;;;;;;59.85;35.03;;;9.90;99.90;;;;;;4932069;29;20059;-67
2022/11/11 03:02:03;;;;;;;60.10;35.67;;;9.80;99.90;;;;;;4932390;29;20429;-67
2022/11/11 03:04:28;;;;;;;53.50;34.60;;;9.90;99.90;;;;;;4931594;29;20046;-68
2022/11/11 03:06:54;;;;;;;31.27;15.50;;;9.90;99.90;;;;;;4937481;29;20039;-68
2022/11/11 03:09:19;;;;;;;25.67;11.13;;;9.90;99.90;;;;;;4932407;29;20398;-68
2022/11/11 03:11:45;;;;;;;63.38;34.38;;;9.90;99.90;;;;;;4932780;29;20055;-67
2022/11/11 03:14:11;;;;;;;63.30;35.83;;;9.90;99.90;;;;;;4932121;29;20040;-67
2022/11/11 03:19:21;;;;;;;63.53;36.83;;;10.00;99.90;;;;;;4931025;29;20059;-67
2022/11/11 03:21:46;;;;;;;62.85;37.30;;;9.90;99.90;;;;;;4932974;29;20055;-68
2022/11/11 03:24:12;;;;;;;65.88;39.15;;;9.90;99.90;;;;;;4931737;29;20513;-68
2022/11/11 03:26:38;;;;;;;60.58;36.50;;;10.00;99.90;;;;;;4932247;29;20047;-67
2022/11/11 03:29:04;;;;;;;65.65;39.83;;;10.00;99.90;;;;;;4932294;29;20186;-67
2022/11/11 03:31:30;;;;;;;70.47;39.60;;;9.90;99.90;;;;;;4931910;29;20068;-67
2022/11/11 03:34:16;;;;;;;59.88;37.47;;;9.90;99.90;;;;;;4931669;29;20096;-67
2022/11/11 03:39:26;;;;;;;78.18;40.22;;;9.90;99.90;;;;;;4932320;29;20051;-67
2022/11/11 03:41:52;;;;;;;67.55;40.90;;;9.90;99.90;;;;;;4943486;29;20050;-67
2022/11/11 03:44:17;;;;;;;72.35;42.33;;;9.90;99.90;;;;;;4931377;29;20059;-67
2022/11/11 03:46:43;;;;;;;77.30;42.47;;;9.90;99.90;;;;;;4931430;29;20066;-67
2022/11/11 03:49:08;;;;;;;42.28;17.35;;;9.90;99.90;;;;;;4931811;29;20552;-68
2022/11/11 03:51:34;;;;;;;37.10;13.50;;;9.90;99.90;;;;;;4931053;29;20044;-68
2022/11/11 03:54:00;;;;;;;73.60;41.17;;;9.90;99.90;;;;;;4930534;29;20050;-67
2022/11/11 03:56:25;;;;;;;74.18;43.38;;;9.80;99.90;;;;;;4930282;29;20058;-67
2022/11/11 03:58:51;;;;;;;71.53;41.08;;;9.90;99.90;;;;;;4931360;29;20050;-67
2022/11/11 04:12:14;;;;;;;78.20;44.55;;;10.00;99.90;;;;;;4927599;29;20472;-67
2022/11/11 04:17:24;;;;;;;69.13;42.38;;;10.10;99.90;;;;;;4920620;29;20059;-68
2022/11/11 04:22:40;;;;;;;77.05;47.78;;;10.10;99.90;;;;;;4929915;29;20047;-67
2022/11/11 04:29:27;;;;;;;79.25;44.58;;;10.10;99.90;;;;;;4929219;29;20954;-67
2022/11/11 04:30:36;;;;;;;83.30;44.72;;;10.20;99.90;;;;;;4927452;29;20126;-68
2022/11/11 04:33:02;;;;;;;91.88;45.88;;;10.20;99.90;;;;;;4930422;29;20130;-67
2022/11/11 04:35:27;;;;;;;76.60;42.80;;;10.20;99.90;;;;;;4929941;29;20058;-68
2022/11/11 04:41:02;;;;;;;77.50;44.85;;;10.20;99.90;;;;;;4937605;29;20400;-67
2022/11/11 04:43:23;;;;;;;83.88;45.30;;;10.20;99.90;;;;;;4925239;29;20059;-67
2022/11/11 04:45:49;;;;;;;86.25;44.70;;;10.30;99.90;;;;;;4929269;29;20477;-68
2022/11/11 04:48:19;;;;;;;80.78;45.80;;;10.30;99.90;;;;;;4930112;29;20044;-67
2022/11/11 04:50:45;;;;;;;80.25;45.72;;;10.20;99.90;;;;;;4930359;29;20514;-68
2022/11/11 04:53:13;;;;;;;74.45;41.28;;;10.20;99.90;;;;;;4929753;29;20127;-67
2022/11/11 04:58:27;;;;;;;79.47;44.90;;;10.30;99.90;;;;;;4918797;29;20047;-67
2022/11/11 05:00:52;;;;;;;84.10;45.17;;;10.30;99.90;;;;;;4923061;29;20123;-67
2022/11/11 05:03:20;;;;;;;80.45;44.70;;;10.30;99.90;;;;;;4929495;29;20560;-68
2022/11/11 05:08:55;;;;;;;80.65;48.33;;;10.30;99.90;;;;;;4929398;29;20140;-68
2022/11/11 05:11:23;;;;;;;85.93;44.38;;;10.30;99.90;;;;;;4930022;29;20051;-67
2022/11/11 05:22:41;;;;;;;79.10;45.80;;;10.30;99.90;;;;;;4914751;29;20058;-68
2022/11/11 05:25:28;;;;;;;89.22;46.63;;;10.40;99.90;;;;;;4930131;29;20047;-67
2022/11/11 05:27:55;;;;;;;95.90;47.75;;;10.40;99.90;;;;;;4930276;29;20048;-67
2022/11/11 05:30:21;;;;;;;89.15;44.55;;;10.30;99.90;;;;;;4929846;29;20040;-67
2022/11/11 05:32:48;;;;;;;76.35;43.90;;;10.40;99.90;;;;;;4928282;29;20062;-67
2022/11/11 05:35:14;;;;;;;70.80;41.97;;;10.40;99.90;;;;;;4928997;29;20048;-67
2022/11/11 05:37:41;;;;;;;75.47;42.05;;;10.40;99.90;;;;;;4931668;29;20075;-67
2022/11/11 05:40:07;;;;;;;91.22;45.90;;;10.40;99.90;;;;;;4935621;29;20047;-68
2022/11/11 05:42:33;;;;;;;77.30;45.42;;;10.40;99.90;;;;;;4933895;29;20044;-68
2022/11/11 05:44:59;;;;;;;76.85;44.08;;;10.30;99.90;;;;;;4933352;29;20051;-67
2022/11/11 05:47:26;;;;;;;85.82;43.47;;;10.40;99.90;;;;;;4932127;29;20121;-67
2022/11/11 05:49:51;;;;;;;77.15;43.10;;;10.50;99.90;;;;;;4931054;29;20050;-67
2022/11/11 05:52:17;;;;;;;66.97;42.60;;;10.40;99.90;;;;;;4948302;29;20051;-68
2022/11/11 05:54:44;;;;;;;72.10;42.58;;;10.40;99.90;;;;;;4934227;29;20086;-67
2022/11/11 05:57:10;;;;;;;76.05;45.60;;;10.40;99.90;;;;;;4932594;29;20044;-67
2022/11/11 05:59:36;;;;;;;76.35;41.47;;;10.40;99.90;;;;;;4933504;29;20095;-67
2022/11/11 06:02:02;;;;;;;84.95;43.28;;;10.40;99.90;;;;;;4933442;29;20043;-67
2022/11/11 06:04:27;;;;;;;82.75;43.42;;;10.40;99.90;;;;;;4932377;29;20056;-67
2022/11/11 06:06:53;;;;;;;68.25;41.15;;;10.50;99.90;;;;;;4933651;29;20043;-67
2022/11/11 06:09:19;;;;;;;68.72;40.92;;;10.40;99.90;;;;;;4932766;29;20103;-67
2022/11/11 06:11:45;;;;;;;75.25;41.83;;;10.40;99.90;;;;;;4933894;29;20046;-67
2022/11/11 06:14:10;;;;;;;81.28;41.85;;;10.40;99.90;;;;;;4933632;29;20047;-67
2022/11/11 06:16:36;;;;;;;79.15;43.35;;;10.40;99.90;;;;;;4933804;29;20048;-67
2022/11/11 06:19:03;;;;;;;66.00;39.80;;;10.40;99.90;;;;;;4933356;29;20050;-67
2022/11/11 06:21:31;;;;;;;75.45;41.28;;;10.40;99.90;;;;;;4931979;29;20500;-68
2022/11/11 06:23:57;;;;;;;84.43;41.67;;;10.40;99.90;;;;;;4931623;29;20915;-67
2022/11/11 06:26:22;;;;;;;34.20;15.38;;;10.40;99.90;;;;;;4932600;29;20330;-67
2022/11/11 06:28:49;;;;;;;68.93;40.00;;;10.40;99.90;;;;;;4931611;29;20051;-68
2022/11/11 06:31:21;;;;;;;73.85;40.03;;;10.30;99.90;;;;;;4932682;29;20130;-67
2022/11/11 06:33:47;;;;;;;71.03;40.58;;;10.40;99.90;;;;;;4932921;29;20066;-68
2022/11/11 06:36:16;;;;;;;75.28;39.72;;;10.40;99.90;;;;;;4933094;29;20055;-68
2022/11/11 06:38:42;;;;;;;77.38;41.20;;;10.40;99.90;;;;;;4931565;29;20078;-68
2022/11/11 06:41:11;;;;;;;74.63;39.78;;;10.50;99.90;;;;;;4932652;29;20048;-67
2022/11/11 06:43:38;;;;;;;71.20;41.83;;;10.50;99.90;;;;;;4932518;29;20943;-67
2022/11/11 06:46:04;;;;;;;65.15;39.67;;;10.40;99.90;;;;;;4933114;29;20044;-67
2022/11/11 06:48:30;;;;;;;71.55;41.45;;;10.60;99.90;;;;;;4932417;29;20288;-68
2022/11/11 06:51:04;;;;;;;62.20;39.50;;;10.50;99.90;;;;;;4932096;29;20047;-67
2022/11/11 06:53:30;;;;;;;69.22;39.25;;;10.50;99.90;;;;;;4932314;29;20523;-68
2022/11/11 06:55:57;;;;;;;71.80;37.70;;;10.40;99.90;;;;;;4931326;29;20040;-66
2022/11/11 06:58:23;;;;;;;69.00;38.92;;;10.40;99.90;;;;;;4919604;29;20079;-67
2022/11/11 07:00:49;;;;;;;67.43;37.05;;;10.70;99.90;;;;;;4933227;29;20039;-67
2022/11/11 07:03:17;;;;;;;71.03;39.47;;;10.50;99.90;;;;;;4932949;29;20044;-68
2022/11/11 07:05:43;;;;;;;64.45;36.63;;;10.50;99.90;;;;;;4947098;28;20055;-67
2022/11/11 07:08:12;;;;;;;69.55;35.80;;;10.50;99.90;;;;;;4932590;29;20040;-67
2022/11/11 07:10:40;;;;;;;66.45;37.97;;;10.50;99.90;;;;;;4932062;29;20054;-68
2022/11/11 07:13:06;;;;;;;70.07;39.38;;;10.50;99.90;;;;;;4929330;29;20409;-68
2022/11/11 07:15:34;;;;;;;63.53;37.28;;;10.50;99.90;;;;;;4930303;29;20074;-68
2022/11/11 07:18:01;;;;;;;73.63;37.42;;;10.50;99.90;;;;;;4930918;29;20035;-67
2022/11/11 07:20:27;;;;;;;69.38;37.30;;;10.50;99.90;;;;;;4932154;29;20054;-67
2022/11/11 07:22:52;;;;;;;67.88;37.45;;;10.60;99.90;;;;;;4931910;29;20047;-68
2022/11/11 07:25:18;;;;;;;67.07;37.38;;;10.50;99.90;;;;;;4931892;29;20039;-67
2022/11/11 07:27:43;;;;;;;60.13;37.10;;;10.60;99.90;;;;;;4946679;29;20051;-68
2022/11/11 07:30:10;;;;;;;77.97;40.33;;;10.60;99.90;;;;;;4929227;29;20054;-68
2022/11/11 07:32:37;;;;;;;66.25;35.95;;;10.60;99.90;;;;;;4931529;29;20524;-67
2022/11/11 07:35:03;;;;;;;66.18;37.88;;;10.60;99.90;;;;;;4928941;29;20044;-67
2022/11/11 07:37:31;;;;;;;67.20;36.67;;;10.60;99.90;;;;;;4931783;29;20063;-68
2022/11/11 07:39:57;;;;;;;;;;;10.60;99.90;;;;;;4931676;29;20044;-68
2022/11/11 07:42:22;;;;;;;63.65;38.03;;;10.60;99.90;;;;;;4931343;29;19927;-67
2022/11/11 07:44:48;;;;;;;66.85;33.70;;;10.60;99.90;;;;;;4930616;29;20043;-68
2022/11/11 07:47:14;;;;;;;76.18;37.53;;;10.60;99.90;;;;;;4928593;29;20055;-68
2022/11/11 07:49:39;;;;;;;60.33;33.88;;;10.70;99.90;;;;;;4929705;29;20087;-68
2022/11/11 07:52:05;;;;;;;69.32;34.95;;;10.60;99.90;;;;;;4927595;29;20420;-67
2022/11/11 07:54:30;;;;;;;59.55;33.33;;;10.60;99.90;;;;;;4930102;29;20042;-68
2022/11/11 07:56:56;;;;;;;66.65;36.05;;;10.60;99.90;;;;;;4931342;29;20040;-68
2022/11/11 07:59:22;;;;;;;61.58;35.47;;;10.70;99.90;;;;;;4929828;29;20123;-68
2022/11/11 08:01:48;;;;;;;61.67;36.78;;;10.60;99.90;;;;;;4929760;29;20048;-67
2022/11/11 08:04:13;;;;;;;58.33;35.05;;;10.70;99.90;;;;;;4931123;29;20055;-68
2022/11/11 08:06:39;;;;;;;57.58;34.85;;;10.70;99.90;;;;;;4931606;29;20039;-67
2022/11/11 08:09:05;;;;;;;74.10;33.35;;;10.70;99.90;;;;;;4931295;29;20055;-68
2022/11/11 08:14:16;;;;;;;67.75;36.03;;;10.70;99.90;;;;;;4930851;29;20051;-68
2022/11/11 08:16:42;;;;;;;61.70;35.60;;;10.80;99.90;;;;;;4933565;29;20070;-67
2022/11/11 08:19:07;;;;;;;68.28;34.10;;;10.70;99.90;;;;;;4926358;29;20047;-67
2022/11/11 08:21:40;;;;;;;63.90;33.40;;;10.70;99.90;;;;;;5103182;27;20388;-66
2022/11/11 08:24:07;;;;;;;53.65;32.78;;;10.80;99.90;;;;;;5084988;28;20448;-67
2022/11/11 08:26:33;;;;;;;58.35;33.42;;;10.80;99.90;;;;;;5085046;28;20123;-67
2022/11/11 08:28:58;;;;;;;54.63;31.05;;;10.80;99.90;;;;;;5075163;28;20139;-67
2022/11/11 08:31:25;;;;;;;54.90;31.27;;;10.80;99.90;;;;;;5084029;28;20889;-67
2022/11/11 08:33:51;;;;;;;53.97;30.95;;;10.80;99.90;;;;;;5084606;28;20048;-67
2022/11/11 08:36:16;;;;;;;63.83;32.67;;;10.90;99.90;;;;;;5083667;28;20810;-66
2022/11/11 08:38:42;;;;;;;52.78;32.75;;;10.90;99.90;;;;;;5083653;28;20044;-66
2022/11/11 08:41:07;;;;;;;59.40;30.85;;;10.90;99.90;;;;;;5080939;28;20067;-66
2022/11/11 08:43:33;;;;;;;59.95;31.55;;;10.90;99.90;;;;;;5078935;28;20045;-67
2022/11/11 08:46:02;;;;;;;56.63;32.95;;;10.90;99.90;;;;;;5070338;28;20430;-66
2022/11/11 08:48:30;;;;;;;53.97;31.33;;;10.90;99.90;;;;;;5079900;28;20040;-67
2022/11/11 08:50:56;;;;;;;75.57;32.13;;;10.90;99.90;;;;;;5084010;28;20036;-67
2022/11/11 08:53:22;;;;;;;52.65;30.45;;;11.00;99.90;;;;;;5077363;28;20079;-67
2022/11/11 08:55:47;;;;;;;52.35;29.98;;;11.00;99.90;;;;;;5075178;28;20037;-67
2022/11/11 08:58:13;;;;;;;58.10;32.40;;;11.00;99.90;;;;;;5081259;28;20077;-66
2022/11/11 09:00:39;;;;;;;50.45;29.33;;;11.00;99.90;;;;;;5080664;28;20044;-67
2022/11/11 09:03:09;;;;;;;62.95;32.25;;;11.00;99.90;;;;;;5054435;28;20040;-67
2022/11/11 09:05:37;;;;;;;59.15;30.40;;;11.10;99.90;;;;;;5083930;28;20123;-67
2022/11/11 09:08:06;;;;;;;61.92;29.65;;;11.10;99.90;;;;;;5079589;28;20044;-67
2022/11/11 09:10:32;;;;;;;51.85;29.23;;;11.10;99.90;;;;;;5075995;28;20052;-67
2022/11/11 09:12:59;;;;;;;52.25;28.90;;;11.20;99.90;;;;;;5082228;28;20048;-67
2022/11/11 09:15:25;;;;;;;48.10;29.92;;;11.20;99.90;;;;;;5081942;28;20042;-67
2022/11/11 09:17:51;;;;;;;55.67;30.58;;;11.40;99.90;;;;;;5080924;28;20036;-67
2022/11/11 09:20:18;;;;;;;53.45;27.38;;;11.20;99.90;;;;;;5074135;28;20056;-67
2022/11/11 09:22:47;;;;;;;59.92;28.55;;;11.20;99.90;;;;;;5082658;28;20078;-65
2022/11/11 09:25:14;;;;;;;47.25;28.00;;;11.30;99.90;;;;;;5078064;28;20037;-67
2022/11/11 09:27:40;;;;;;;51.17;26.70;;;11.20;99.90;;;;;;5083122;28;20047;-67
2022/11/11 09:30:07;;;;;;;48.40;28.60;;;11.30;99.90;;;;;;5077143;28;20053;-67
2022/11/11 09:32:32;;;;;;;46.03;26.98;;;11.30;99.90;;;;;;5063297;28;20048;-67
2022/11/11 09:34:59;;;;;;;51.80;28.23;;;11.30;99.90;;;;;;5069425;28;20398;-67
2022/11/11 09:37:25;;;;;;;45.70;26.63;;;11.30;99.90;;;;;;5069189;28;20090;-66
2022/11/11 09:39:50;;;;;;;47.45;26.35;;;11.40;99.90;;;;;;5070015;28;20049;-67
2022/11/11 09:42:35;;;;;;;42.85;26.33;;;11.40;99.90;;;;;;5068996;28;20159;-67
2022/11/11 09:45:07;;;;;;;43.42;27.20;;;11.40;99.90;;;;;;5062105;28;20041;-67
2022/11/11 09:47:47;;;;;;;53.80;28.65;;;11.40;99.90;;;;;;5068813;28;20746;-67
2022/11/11 09:50:17;;;;;;;48.08;25.83;;;11.40;99.90;;;;;;5061745;28;20111;-67
2022/11/11 09:52:50;;;;;;;40.13;27.10;;;11.50;99.90;;;;;;5068916;28;20028;-67
2022/11/11 09:55:35;;;;;;;40.00;23.88;;;11.50;99.90;;;;;;5062813;28;20045;-67
2022/11/11 09:58:13;;;;;;;38.30;24.33;;;11.50;99.90;;;;;;5084876;28;20396;-67
2022/11/11 10:00:41;;;;;;;;;;;11.60;99.90;;;;;;5059261;28;20383;-67
2022/11/11 10:03:15;;;;;;;47.63;26.23;;;11.50;99.90;;;;;;5061190;28;20410;-67
2022/11/11 10:06:22;;;;;;;38.33;23.98;;;11.60;99.90;;;;;;5066800;28;20046;-67
2022/11/11 10:09:01;;;;;;;41.67;26.80;;;11.60;99.90;;;;;;5062415;28;20060;-67
2022/11/11 10:11:56;;;;;;;53.38;26.67;;;11.60;99.90;;;;;;5069473;28;20287;-67
2022/11/11 10:14:22;;;;;;;39.03;23.30;;;11.60;99.90;;;;;;5060301;28;20055;-67
2022/11/11 10:16:57;;;;;;;50.22;26.20;;;11.70;99.90;;;;;;5068238;28;20044;-67
2022/11/11 10:19:31;;;;;;;40.25;23.23;;;11.70;99.90;;;;;;5068287;28;20929;-67
2022/11/11 10:22:06;;;;;;;35.70;22.65;;;11.80;99.90;;;;;;5067858;28;20052;-67
2022/11/11 10:24:38;;;;;;;39.67;24.55;;;12.00;99.90;;;;;;5066537;28;20052;-67
2022/11/11 10:27:14;;;;;;;38.30;22.73;;;11.80;99.90;;;;;;5068953;28;20047;-67
2022/11/11 10:29:43;;;;;;;36.58;23.15;;;11.80;99.90;;;;;;5093123;28;20522;-67
2022/11/11 10:32:16;;;;;;;35.88;23.67;;;11.90;99.90;;;;;;5066389;28;20045;-66
2022/11/11 10:34:42;;;;;;;45.42;26.58;;;12.00;99.90;;;;;;5069995;28;20190;-67
2022/11/11 10:37:24;;;;;;;44.72;25.85;;;12.00;99.90;;;;;;5071364;28;20462;-67
2022/11/11 10:40:35;;;;;;;42.15;23.92;;;12.00;99.90;;;;;;5067292;28;20084;-67
2022/11/11 10:43:00;;;;;;;43.65;25.20;;;11.90;99.90;;;;;;5063034;28;20121;-67
2022/11/11 10:45:35;;;;;;;43.15;24.35;;;11.90;99.90;;;;;;5066444;28;20037;-67
2022/11/11 10:48:07;;;;;;;41.88;25.20;;;11.90;99.90;;;;;;5068209;28;20075;-66
2022/11/11 10:50:48;;;;;;;45.63;24.38;;;12.00;99.90;;;;;;5066962;28;20355;-67
2022/11/11 10:53:32;;;;;;;35.85;23.02;;;12.00;99.90;;;;;;5063143;28;20089;-67
2022/11/11 10:56:27;;;;;;;52.45;28.08;;;12.00;99.90;;;;;;5058459;28;20139;-67
2022/11/11 10:59:03;;;;;;;58.25;29.83;;;12.00;99.90;;;;;;5066615;28;20090;-67
2022/11/11 11:01:38;;;;;;;49.00;28.38;;;12.00;99.90;;;;;;5066899;28;20044;-67
2022/11/11 11:04:13;;;;;;;59.90;31.73;;;12.00;99.90;;;;;;5065336;28;20036;-67
2022/11/11 11:06:42;;;;;;;49.83;29.15;;;12.10;99.90;;;;;;5060734;28;20049;-67
2022/11/11 11:09:28;;;;;;;49.83;29.27;;;12.00;99.90;;;;;;5066269;28;20045;-67
2022/11/11 11:12:00;;;;;;;51.90;28.58;;;12.00;99.90;;;;;;5042401;28;20386;-67
2022/11/11 11:14:33;;;;;;;51.85;29.75;;;12.00;99.90;;;;;;5066379;28;20041;-67
2022/11/11 11:17:07;;;;;;;51.80;30.13;;;12.00;99.90;;;;;;5066999;28;20051;-67
2022/11/11 11:19:33;;;;;;;52.30;29.73;;;12.00;99.90;;;;;;5058927;28;20203;-66
2022/11/11 11:22:00;;;;;;;53.40;31.00;;;11.90;99.90;;;;;;5067300;28;20048;-67
2022/11/11 11:24:31;;;;;;;54.93;28.97;;;11.90;99.90;;;;;;5066813;28;20079;-67
2022/11/11 11:26:59;;;;;;;47.33;29.10;;;12.00;99.90;;;;;;5064857;28;20048;-67
2022/11/11 11:29:44;;;;;;;48.60;30.98;;;11.90;99.90;;;;;;5066488;28;20036;-67
2022/11/11 11:32:30;;;;;;;56.03;32.03;;;11.90;99.90;;;;;;5065847;28;20044;-67
2022/11/11 11:34:57;;;;;;;51.70;29.48;;;11.90;99.90;;;;;;5059950;28;20102;-67
2022/11/11 11:37:24;;;;;;;48.15;29.38;;;11.90;99.90;;;;;;5064850;28;20051;-66
2022/11/11 11:40:19;;;;;;;52.17;30.98;;;11.90;99.90;;;;;;5060632;28;20127;-67
2022/11/11 11:42:45;;;;;;;53.13;32.35;;;11.90;99.90;;;;;;5051902;28;20056;-67
2022/11/11 11:45:28;;;;;;;48.25;30.30;;;11.90;99.90;;;;;;5066284;28;20037;-67
2022/11/11 11:48:06;;;;;;;47.00;27.80;;;11.90;99.90;;;;;;5066246;28;20052;-66
2022/11/11 11:50:59;;;;;;;45.45;27.35;;;11.90;99.90;;;;;;5064039;28;20053;-67
2022/11/11 11:53:46;;;;;;;48.85;27.58;;;11.90;99.90;;;;;;5060345;28;20520;-67
2022/11/11 11:56:19;;;;;;;46.53;27.58;;;11.90;99.90;;;;;;5063689;28;20063;-67
2022/11/11 11:59:15;;;;;;;44.78;27.50;;;12.00;99.90;;;;;;5060090;28;20047;-67
2022/11/11 12:02:23;;;;;;;49.70;28.92;;;12.00;99.90;;;;;;5063695;28;20151;-67
2022/11/11 12:05:10;;;;;;;49.72;28.83;;;12.00;99.90;;;;;;5098775;28;20079;-67
2022/11/11 12:08:13;;;;;;;43.83;28.70;;;12.10;99.90;;;;;;5061227;28;20051;-67
2022/11/11 12:10:43;;;;;;;37.35;24.50;;;12.10;99.90;;;;;;5064868;28;20044;-67
2022/11/11 12:13:18;;;;;;;38.75;27.10;;;12.10;99.90;;;;;;5064364;28;20076;-67
2022/11/11 12:15:54;;;;;;;46.05;27.92;;;12.10;99.90;;;;;;5062428;28;20051;-67
2022/11/11 12:18:58;;;;;;;51.88;28.08;;;12.10;99.90;;;;;;5066146;28;20052;-67
2022/11/11 12:21:33;;;;;;;47.30;27.27;;;12.20;99.90;;;;;;5058799;28;20067;-67
2022/11/11 12:24:39;;;;;;;42.97;26.15;;;12.20;99.90;;;;;;5063606;28;20409;-67
2022/11/11 12:27:19;;;;;;;47.65;27.33;;;12.40;99.90;;;;;;5066622;28;20052;-67
2022/11/11 12:29:47;;;;;;;48.30;26.20;;;12.40;99.90;;;;;;5054626;28;20054;-67
2022/11/11 12:32:28;;;;;;;36.85;23.58;;;12.60;99.90;;;;;;5067830;28;21357;-67
2022/11/11 12:35:22;;;;;;;50.50;26.40;;;12.70;99.90;;;;;;5057492;28;20052;-67
2022/11/11 12:37:59;;;;;;;44.03;27.48;;;12.90;99.90;;;;;;5064797;28;20045;-67
2022/11/11 12:40:39;;;;;;;36.88;26.63;;;12.90;99.90;;;;;;5065213;28;20101;-67
2022/11/11 12:43:16;;;;;;;39.30;24.17;;;13.00;99.90;;;;;;5057957;28;20049;-67
2022/11/11 12:45:57;;;;;;;35.60;25.87;;;12.90;99.90;;;;;;5066839;28;20093;-67
2022/11/11 12:48:34;;;;;;;36.80;24.50;;;12.90;99.90;;;;;;5066486;28;20291;-67
2022/11/11 12:51:15;;;;;;;39.90;24.90;;;13.00;99.90;;;;;;5066422;28;20075;-67
2022/11/11 12:53:46;;;;;;;36.65;24.25;;;13.10;99.90;;;;;;5059204;28;20055;-67
2022/11/11 12:56:33;;;;;;;38.42;23.92;;;13.00;99.90;;;;;;5062020;28;20147;-67
2022/11/11 12:59:10;;;;;;;39.80;24.02;;;13.10;99.90;;;;;;5064308;28;20041;-67
2022/11/11 13:01:57;;;;;;;30.30;18.75;;;13.10;99.90;;;;;;5065269;28;20052;-67
2022/11/11 13:04:34;;;;;;;28.70;19.88;;;13.10;99.90;;;;;;5058881;28;20500;-67
2022/11/11 13:07:37;;;;;;;31.67;19.17;;;13.20;99.90;;;;;;5063114;28;20592;-68
2022/11/11 13:10:33;;;;;;;27.55;17.60;;;13.10;99.90;;;;;;5068701;28;20040;-67
2022/11/11 13:13:08;;;;;;;33.08;21.02;;;13.10;99.90;;;;;;5060535;28;20405;-67
2022/11/11 13:15:33;;;;;;;32.10;20.05;;;13.00;99.90;;;;;;5063193;28;20040;-67
2022/11/11 13:18:00;;;;;;;32.72;20.17;;;13.00;99.90;;;;;;5060651;28;20047;-67
2022/11/11 13:20:58;;;;;;;29.65;19.27;;;13.00;99.90;;;;;;5069172;28;20052;-67
2022/11/11 13:23:24;;;;;;;34.80;19.42;;;13.00;99.90;;;;;;5064262;28;20056;-67
2022/11/11 13:25:57;;;;;;;36.30;19.35;;;12.80;99.90;;;;;;5060635;28;20041;-67
2022/11/11 13:28:34;;;;;;;30.90;18.85;;;12.80;99.90;;;;;;5068320;28;20075;-67
2022/11/11 13:31:24;;;;;;;26.25;17.98;;;12.80;99.90;;;;;;5061546;28;20136;-67
2022/11/11 13:33:53;;;;;;;35.08;19.25;;;12.80;99.90;;;;;;5055662;28;20053;-67
2022/11/11 13:36:23;;;;;;;37.22;21.63;;;12.80;99.90;;;;;;5068639;28;20512;-67
2022/11/11 13:38:52;;;;;;;35.67;19.73;;;12.90;99.90;;;;;;5066490;28;20531;-67
2022/11/11 13:41:26;;;;;;;28.58;18.77;;;12.80;99.90;;;;;;5068497;28;20787;-67
2022/11/11 13:43:53;;;;;;;34.65;20.08;;;12.70;99.90;;;;;;5069136;28;20120;-67
2022/11/11 13:46:40;;;;;;;36.20;20.05;;;12.70;99.90;;;;;;5068579;28;20036;-67
2022/11/11 13:49:23;;;;;;;31.38;20.20;;;12.70;99.90;;;;;;5066388;28;20037;-67
2022/11/11 13:52:04;;;;;;;26.40;18.77;;;12.70;99.90;;;;;;5063636;28;20101;-67
2022/11/11 13:54:41;;;;;;;32.75;20.40;;;12.70;99.90;;;;;;5066773;28;20446;-67
2022/11/11 13:57:13;;;;;;;29.92;20.92;;;12.60;99.90;;;;;;5064583;28;20676;-67